Terminal Aerodrome Forecast
Issued by NWS Pueblo, CO

Home | Current Version | Previous Version | Text Only | Print | Product List | Glossary On
Versions: 1 2 3 4 5 6 7 8 9 10 11 12 13 14 15 16 17
000
FTUS45 KPUB 270940 AAA
TAFALS
TAF AMD
KALS 270940Z 2710/2806 VRB05KT P6SM VCSH SCT020 BKN035
      TEMPO 2710/2713 5SM -SHRA SCT008 BKN015
     FM271700 VRB06KT P6SM SCT100 BKN150
     FM272100 22013KT P6SM SCT100 BKN200=

USA.gov is the U.S. government's official web portal to all federal, state and local government web resources and services.